Time;durP1;ratioP1;P1;durP2;ratioP2;P2;SDS_P1;SDS_P2;PMS_P1;PMS_P2;Temp;Humidity;BMP_temperature;BMP_pressure;BME280_temperature;BME280_humidity;BME280_pressure;Samples;Min_cycle;Max_cycle;Signal;HPM_P1;HPM_P2
2021/12/09 00:00:29;;;;;;;11.95;5.93;;;;;;;-12.32;100.00;99644.28;5154942;27;20051;-55
2021/12/09 00:02:57;;;;;;;13.75;5.97;;;;;;;-12.28;100.00;99653.41;5154885;27;20055;-57
2021/12/09 00:05:23;;;;;;;11.63;4.18;;;;;;;-12.26;100.00;99661.94;5154925;27;20050;-53
2021/12/09 00:07:52;;;;;;;11.68;5.43;;;;;;;-12.29;100.00;99667.63;5154619;27;20133;-56
2021/12/09 00:10:18;;;;;;;16.83;5.43;;;;;;;-12.28;100.00;99664.81;5154816;27;20055;-56
2021/12/09 00:12:45;;;;;;;15.38;6.35;;;;;;;-12.18;100.00;99693.47;5154666;27;20050;-55
2021/12/09 00:15:11;;;;;;;15.25;6.40;;;;;;;-12.10;100.00;99695.88;5154582;27;20057;-57
2021/12/09 00:17:37;;;;;;;14.10;4.22;;;;;;;-12.15;100.00;99700.97;5154537;27;20051;-56
2021/12/09 00:20:06;;;;;;;11.25;5.53;;;;;;;-12.20;100.00;99695.47;5154724;27;20050;-57
2021/12/09 00:22:32;;;;;;;21.20;6.55;;;;;;;-12.18;100.00;99701.38;5154747;27;20050;-54
2021/12/09 00:24:59;;;;;;;17.58;6.05;;;;;;;-12.05;100.00;99705.88;5154365;27;20050;-56
2021/12/09 00:27:25;;;;;;;21.75;6.50;;;;;;;-12.05;100.00;99706.66;5154530;27;20083;-56
2021/12/09 00:29:51;;;;;;;16.33;5.68;;;;;;;-12.13;100.00;99698.94;5154245;27;20429;-56
2021/12/09 00:32:18;;;;;;;11.20;4.75;;;;;;;-12.21;100.00;99694.66;5154654;27;20133;-54
2021/12/09 00:34:47;;;;;;;14.32;6.53;;;;;;;-11.97;100.00;99680.00;5154378;27;20428;-53
2021/12/09 00:37:19;;;;;;;17.75;6.70;;;;;;;-11.86;100.00;99692.63;5154413;27;20155;-54
2021/12/09 00:39:49;;;;;;;15.65;6.22;;;;;;;-11.81;100.00;99694.59;5154470;27;20061;-57
2021/12/09 00:42:15;;;;;;;14.05;6.28;;;;;;;-11.73;100.00;99689.09;5153629;27;20150;-56
2021/12/09 00:44:42;;;;;;;15.75;4.70;;;;;;;-11.81;100.00;99688.50;5153922;27;20047;-56
2021/12/09 00:47:08;;;;;;;12.15;5.47;;;;;;;-11.74;100.00;99671.59;5154391;27;20051;-56
2021/12/09 00:49:34;;;;;;;19.23;6.50;;;;;;;-11.64;100.00;99669.34;5154490;27;20050;-57
2021/12/09 00:52:01;;;;;;;19.90;6.55;;;;;;;-11.74;100.00;99679.53;5154293;27;20062;-55
2021/12/09 00:54:28;;;;;;;30.13;6.93;;;;;;;-11.79;100.00;99679.34;5154397;27;20054;-58
2021/12/09 00:56:54;;;;;;;19.52;6.53;;;;;;;-11.75;100.00;99683.22;5153936;27;20051;-56
2021/12/09 00:59:21;;;;;;;13.02;6.30;;;;;;;-11.77;100.00;99672.00;5154338;27;20065;-57
2021/12/09 01:01:47;;;;;;;14.95;6.63;;;;;;;-11.70;100.00;99675.44;5153993;27;20062;-55
2021/12/09 01:04:13;;;;;;;16.02;7.13;;;;;;;-11.71;100.00;99665.91;5153602;27;20050;-57
2021/12/09 01:06:40;;;;;;;11.32;5.63;;;;;;;-11.69;100.00;99663.88;5153748;27;20051;-57
2021/12/09 01:09:06;;;;;;;11.00;5.38;;;;;;;-11.66;100.00;99660.81;5153875;27;20429;-54
2021/12/09 01:11:34;;;;;;;12.43;5.72;;;;;;;-11.64;100.00;99671.97;5153672;27;20051;-54
2021/12/09 01:14:00;;;;;;;13.68;6.10;;;;;;;-11.59;100.00;99670.53;5153955;27;20050;-56
2021/12/09 01:16:27;;;;;;;18.77;7.05;;;;;;;-11.64;100.00;99661.41;5153743;27;20061;-56
2021/12/09 01:18:53;;;;;;;9.98;5.75;;;;;;;-11.57;100.00;99673.78;5153698;27;20086;-57
2021/12/09 01:21:20;;;;;;;17.17;5.70;;;;;;;-11.57;100.00;99671.97;5153707;27;20049;-56
2021/12/09 01:23:46;;;;;;;18.20;6.57;;;;;;;-11.54;100.00;99660.97;5153543;27;20062;-57
2021/12/09 01:26:12;;;;;;;13.27;5.75;;;;;;;-11.56;100.00;99652.44;5153705;27;20137;-56
2021/12/09 01:28:46;;;;;;;11.52;6.10;;;;;;;-11.51;100.00;99649.97;5153379;27;20089;-56
2021/12/09 01:31:19;;;;;;;14.70;6.75;;;;;;;-11.43;100.00;99649.75;5153747;27;20566;-55
2021/12/09 01:33:46;;;;;;;15.32;6.68;;;;;;;-11.33;100.00;99648.47;5153347;27;20097;-57
2021/12/09 01:36:13;;;;;;;18.77;6.15;;;;;;;-11.24;100.00;99649.84;5153365;27;20587;-54
2021/12/09 01:38:39;;;;;;;13.65;7.40;;;;;;;-11.24;100.00;99641.91;5153689;27;20050;-54
2021/12/09 01:41:06;;;;;;;15.32;6.80;;;;;;;-11.09;100.00;99633.69;5153704;27;20049;-54
2021/12/09 01:43:32;;;;;;;16.60;6.47;;;;;;;-11.15;100.00;99641.47;5152793;27;20135;-54
2021/12/09 01:46:04;;;;;;;14.73;6.90;;;;;;;-11.20;100.00;99640.47;5153309;27;20108;-54
2021/12/09 01:48:30;;;;;;;14.13;6.47;;;;;;;-11.22;100.00;99643.34;5152973;27;20085;-54
2021/12/09 01:50:57;;;;;;;12.25;6.05;;;;;;;-11.21;100.00;99641.50;5153095;27;20076;-56
2021/12/09 01:53:23;;;;;;;16.70;6.95;;;;;;;-11.28;100.00;99635.44;5153137;27;20070;-57
2021/12/09 01:55:50;;;;;;;15.40;7.57;;;;;;;-11.14;100.00;99634.31;5152988;27;20072;-57
2021/12/09 01:58:16;;;;;;;14.05;5.95;;;;;;;-11.06;100.00;99625.31;5153185;27;20518;-56
2021/12/09 02:00:42;;;;;;;21.02;7.65;;;;;;;-11.07;100.00;99621.84;5152774;27;20054;-55
2021/12/09 02:03:10;;;;;;;14.98;7.57;;;;;;;-10.98;100.00;99625.88;5152991;27;20061;-55
2021/12/09 02:05:40;;;;;;;20.23;7.55;;;;;;;-10.91;100.00;99628.50;5152742;27;20054;-53
2021/12/09 02:08:07;;;;;;;16.50;6.82;;;;;;;-10.81;100.00;99635.97;5153166;27;20080;-55
2021/12/09 02:10:33;;;;;;;16.95;7.25;;;;;;;-10.70;100.00;99643.22;5153130;27;20146;-57
2021/12/09 02:13:00;;;;;;;14.48;6.65;;;;;;;-10.72;100.00;99640.00;5152789;27;20089;-53
2021/12/09 02:15:27;;;;;;;12.45;5.18;;;;;;;-10.63;100.00;99651.94;5152564;27;20061;-55
2021/12/09 02:17:55;;;;;;;10.55;5.82;;;;;;;-10.71;100.00;99650.34;5152202;27;20043;-56
2021/12/09 02:20:28;;;;;;;16.10;5.60;;;;;;;-10.65;100.00;99658.50;5152543;27;20043;-57
2021/12/09 02:22:56;;;;;;;11.15;5.25;;;;;;;-10.57;100.00;99661.66;5152386;27;20141;-57
2021/12/09 02:25:23;;;;;;;7.95;4.65;;;;;;;-10.63;100.00;99664.38;5152569;27;20061;-57
2021/12/09 02:27:49;;;;;;;22.10;6.75;;;;;;;-10.53;100.00;99667.34;5152464;27;20047;-56
2021/12/09 02:30:16;;;;;;;15.52;5.82;;;;;;;-10.59;100.00;99645.19;5152565;27;20055;-58
2021/12/09 02:32:45;;;;;;;13.15;6.15;;;;;;;-10.59;100.00;99658.44;5152299;27;20046;-56
2021/12/09 02:35:12;;;;;;;15.65;6.38;;;;;;;-10.53;100.00;99648.81;5152316;27;20102;-56
2021/12/09 02:37:39;;;;;;;16.48;5.57;;;;;;;-10.64;100.00;99642.38;5152506;27;20052;-55
2021/12/09 02:40:07;;;;;;;11.43;5.30;;;;;;;-10.63;100.00;99643.97;5152432;27;20058;-54
2021/12/09 02:42:34;;;;;;;12.02;4.95;;;;;;;-10.67;100.00;99642.78;5152056;27;20134;-55
2021/12/09 02:45:01;;;;;;;8.20;4.07;;;;;;;-10.84;100.00;99631.09;5152140;27;20057;-56
2021/12/09 02:47:28;;;;;;;15.00;6.15;;;;;;;-11.01;100.00;99604.31;5152446;27;20051;-56
2021/12/09 02:49:54;;;;;;;11.73;5.35;;;;;;;-11.03;100.00;99595.75;5152189;27;20047;-57
2021/12/09 02:52:20;;;;;;;16.05;5.65;;;;;;;-11.08;100.00;99575.22;5152466;27;20088;-53
2021/12/09 02:54:47;;;;;;;12.10;5.88;;;;;;;-10.99;100.00;99579.25;5152087;27;20051;-57
2021/12/09 02:57:14;;;;;;;12.88;5.25;;;;;;;-11.03;100.00;99564.78;5152201;27;20072;-57
2021/12/09 02:59:41;;;;;;;11.85;5.93;;;;;;;-10.98;100.00;99559.69;5151867;27;20057;-55
2021/12/09 03:02:09;;;;;;;12.25;6.22;;;;;;;-10.99;100.00;99555.41;5151719;27;20129;-56
2021/12/09 03:04:40;;;;;;;11.40;5.45;;;;;;;-10.88;100.00;99547.81;5151867;27;20050;-55
2021/12/09 03:07:08;;;;;;;14.00;6.03;;;;;;;-10.94;100.00;99537.03;5151886;27;20054;-55
2021/12/09 03:09:35;;;;;;;12.60;5.28;;;;;;;-10.95;100.00;99524.84;5152063;27;20162;-56
2021/12/09 03:12:05;;;;;;;11.27;5.25;;;;;;;-10.98;100.00;99519.97;5152047;27;20043;-55
2021/12/09 03:14:32;;;;;;;13.55;6.57;;;;;;;-10.93;100.00;99524.59;5152035;27;20054;-53
2021/12/09 03:16:59;;;;;;;13.40;6.15;;;;;;;-10.92;100.00;99515.66;5151498;27;20086;-56
2021/12/09 03:19:25;;;;;;;10.40;4.90;;;;;;;-11.00;100.00;99521.19;5151893;27;20050;-54
2021/12/09 03:21:52;;;;;;;8.93;5.25;;;;;;;-11.05;100.00;99513.91;5151660;27;20549;-53
2021/12/09 03:24:19;;;;;;;10.68;5.13;;;;;;;-11.07;100.00;99508.00;5151640;27;20086;-55
2021/12/09 03:26:49;;;;;;;15.90;5.72;;;;;;;-11.09;100.00;99520.66;5151466;27;20642;-53
2021/12/09 03:29:19;;;;;;;17.35;6.15;;;;;;;-10.92;100.00;99535.00;5151820;27;20114;-54
2021/12/09 03:31:47;;;;;;;14.55;5.18;;;;;;;-10.96;100.00;99527.69;5151860;27;20054;-57
2021/12/09 03:34:15;;;;;;;9.88;5.28;;;;;;;-10.95;100.00;99542.56;5151634;27;20429;-55
2021/12/09 03:36:42;;;;;;;9.85;5.00;;;;;;;-11.11;100.00;99535.94;5151698;27;20042;-56
2021/12/09 03:39:13;;;;;;;8.57;4.78;;;;;;;-11.14;100.00;99541.66;5151508;27;20104;-55
2021/12/09 03:41:39;;;;;;;10.88;5.72;;;;;;;-11.05;100.00;99544.88;5151273;27;20046;-57
2021/12/09 03:44:06;;;;;;;7.43;4.60;;;;;;;-10.94;100.00;99570.66;5151171;27;20082;-55
2021/12/09 03:46:33;;;;;;;13.48;4.93;;;;;;;-10.97;100.00;99560.50;5151517;27;20497;-53
2021/12/09 03:49:00;;;;;;;11.63;5.32;;;;;;;-10.81;100.00;99583.00;5151293;27;20559;-54
2021/12/09 03:51:26;;;;;;;12.50;5.60;;;;;;;-10.74;100.00;99589.84;5151289;27;20060;-57
2021/12/09 03:53:53;;;;;;;11.77;5.43;;;;;;;-10.63;100.00;99588.34;5151285;27;20053;-55
2021/12/09 03:56:20;;;;;;;9.73;5.20;;;;;;;-10.61;100.00;99588.13;5150994;27;20505;-54
2021/12/09 03:58:47;;;;;;;11.25;6.03;;;;;;;-10.53;100.00;99595.81;5151196;27;20149;-57
2021/12/09 04:01:13;;;;;;;11.85;6.00;;;;;;;-10.38;100.00;99590.19;5150965;27;20082;-56
2021/12/09 04:03:41;;;;;;;11.25;5.70;;;;;;;-10.40;100.00;99589.59;5151287;27;20043;-55
2021/12/09 04:06:07;;;;;;;10.88;5.72;;;;;;;-10.50;100.00;99590.06;5150974;27;20047;-56
2021/12/09 04:08:33;;;;;;;15.43;6.88;;;;;;;-10.48;100.00;99603.94;5151214;27;20091;-55
2021/12/09 04:11:00;;;;;;;11.40;6.00;;;;;;;-10.40;100.00;99594.88;5150877;27;20051;-54
2021/12/09 04:13:28;;;;;;;12.90;6.43;;;;;;;-10.38;100.00;99603.44;5150867;27;20055;-57
2021/12/09 04:15:54;;;;;;;12.63;6.13;;;;;;;-10.48;100.00;99611.88;5151110;27;20122;-54
2021/12/09 04:18:21;;;;;;;12.65;6.30;;;;;;;-10.43;100.00;99607.56;5150983;27;20421;-57
2021/12/09 04:20:49;;;;;;;13.82;7.28;;;;;;;-10.29;100.00;99604.78;5151087;27;20553;-57
2021/12/09 04:23:15;;;;;;;11.80;6.07;;;;;;;-10.30;100.00;99597.84;5150546;27;20054;-57
2021/12/09 04:25:41;;;;;;;8.25;4.88;;;;;;;-10.32;100.00;99608.69;5151001;27;20405;-54
2021/12/09 04:28:08;;;;;;;12.48;5.90;;;;;;;-10.29;100.00;99615.41;5150790;27;20552;-55
2021/12/09 04:30:34;;;;;;;12.35;4.93;;;;;;;-10.42;100.00;99603.06;5150928;27;20046;-56
2021/12/09 04:33:01;;;;;;;16.38;6.47;;;;;;;-10.38;100.00;99614.03;5150477;27;20058;-55
2021/12/09 04:35:27;;;;;;;13.48;5.75;;;;;;;-10.38;100.00;99612.19;5150935;27;20134;-52
2021/12/09 04:37:54;;;;;;;14.45;6.72;;;;;;;-10.34;100.00;99605.44;5150440;27;20497;-55
2021/12/09 04:40:20;;;;;;;13.82;6.13;;;;;;;-10.41;100.00;99614.47;5152836;27;20086;-56
2021/12/09 04:42:46;;;;;;;10.23;6.07;;;;;;;-10.33;100.00;99619.47;5153669;27;20115;-55
2021/12/09 04:45:13;;;;;;;11.90;5.93;;;;;;;-10.34;100.00;99617.88;5154185;27;20505;-54
2021/12/09 04:47:40;;;;;;;12.73;5.65;;;;;;;-10.39;100.00;99613.22;5154071;27;20046;-53
2021/12/09 04:50:08;;;;;;;12.48;6.60;;;;;;;-10.30;100.00;99606.59;5154003;27;20546;-55
2021/12/09 04:52:35;;;;;;;11.02;5.60;;;;;;;-10.27;100.00;99613.31;5153962;27;20532;-54
2021/12/09 04:55:02;;;;;;;12.18;6.03;;;;;;;-10.22;100.00;99624.06;5153623;27;20042;-54
2021/12/09 04:57:28;;;;;;;14.02;6.03;;;;;;;-10.13;100.00;99625.38;5153807;27;20050;-56
2021/12/09 04:59:55;;;;;;;14.13;6.60;;;;;;;-9.99;100.00;99618.94;5153400;27;20050;-50
2021/12/09 05:02:28;;;;;;;18.88;6.65;;;;;;;-9.73;100.00;99633.78;5153633;27;20107;-50
2021/12/09 05:04:55;;;;;;;10.70;6.03;;;;;;;-9.50;100.00;99634.94;5153358;27;20055;-52
2021/12/09 05:07:21;;;;;;;14.85;7.00;;;;;;;-9.44;100.00;99633.25;5153674;27;20046;-51
2021/12/09 05:09:51;;;;;;;16.05;6.60;;;;;;;-9.44;100.00;99615.47;5153546;27;20058;-53
2021/12/09 05:12:18;;;;;;;11.50;6.45;;;;;;;-9.34;100.00;99626.34;5153660;27;20050;-54
2021/12/09 05:14:45;;;;;;;14.95;6.47;;;;;;;-9.44;100.00;99594.22;5153507;27;20493;-52
2021/12/09 05:17:12;;;;;;;12.35;5.93;;;;;;;-9.62;100.00;99581.00;5153328;27;20047;-54
2021/12/09 05:19:38;;;;;;;17.95;7.35;;;;;;;-9.50;100.00;99584.50;5153746;27;20089;-52
2021/12/09 05:22:05;;;;;;;14.68;6.82;;;;;;;-9.56;100.00;99572.13;5153255;27;20054;-56
2021/12/09 05:24:34;;;;;;;14.10;6.68;;;;;;;-9.62;100.00;99560.56;5153213;27;20051;-56
2021/12/09 05:27:01;;;;;;;18.45;6.68;;;;;;;-9.64;100.00;99562.63;5152992;27;20068;-54
2021/12/09 05:29:32;;;;;;;17.23;7.40;;;;;;;-9.75;100.00;99564.19;5153274;27;20042;-55
2021/12/09 05:32:11;;;;;;;11.35;6.57;;;;;;;-9.69;100.00;99575.75;5152973;27;20047;-56
2021/12/09 05:34:41;;;;;;;12.90;6.53;;;;;;;-9.72;100.00;99582.31;5153148;27;20536;-54
2021/12/09 05:37:09;;;;;;;15.73;7.40;;;;;;;-9.83;100.00;99582.25;5152605;27;20043;-54
2021/12/09 05:39:37;;;;;;;15.52;7.78;;;;;;;-9.92;100.00;99579.09;5152861;27;20073;-57
2021/12/09 05:42:04;;;;;;;11.80;6.70;;;;;;;-9.78;100.00;99599.13;5152600;27;20497;-55
2021/12/09 05:44:31;;;;;;;15.35;7.55;;;;;;;-9.88;100.00;99590.06;5152949;27;20053;-57
2021/12/09 05:46:59;;;;;;;17.77;7.57;;;;;;;-9.90;100.00;99602.72;5152164;27;20057;-58
2021/12/09 05:49:25;;;;;;;11.00;6.15;;;;;;;-9.83;100.00;99601.66;5152877;27;20107;-55
2021/12/09 05:51:53;;;;;;;17.23;6.82;;;;;;;-9.86;100.00;99601.25;5151846;27;20085;-61
2021/12/09 05:54:19;;;;;;;12.00;6.28;;;;;;;-9.61;100.00;99627.72;5152830;27;20504;-60
2021/12/09 05:56:45;;;;;;;12.00;5.97;;;;;;;-9.56;100.00;99630.50;5152258;27;20081;-62
2021/12/09 05:59:12;;;;;;;11.82;6.47;;;;;;;-9.38;100.00;99642.97;5152689;27;20082;-56
2021/12/09 06:01:40;;;;;;;17.23;7.63;;;;;;;-9.62;100.00;99621.59;5152557;27;20075;-55
2021/12/09 06:04:08;;;;;;;17.40;7.25;;;;;;;-9.70;100.00;99600.66;5152598;27;20082;-58
2021/12/09 06:06:35;;;;;;;13.85;5.93;;;;;;;-9.78;100.00;99599.13;5152254;27;20058;-59
2021/12/09 06:09:02;;;;;;;14.80;6.93;;;;;;;-9.82;100.00;99589.19;5152036;27;20085;-55
2021/12/09 06:11:29;;;;;;;15.88;6.45;;;;;;;-9.85;100.00;99586.97;5151996;27;20507;-57
2021/12/09 06:13:55;;;;;;;14.90;6.63;;;;;;;-9.81;100.00;99619.97;5152615;27;20043;-59
2021/12/09 06:16:24;;;;;;;12.30;5.97;;;;;;;-9.93;100.00;99593.34;5151790;27;20047;-58
2021/12/09 06:18:51;;;;;;;13.52;7.00;;;;;;;-9.78;100.00;99596.47;5152230;27;20051;-55
2021/12/09 06:21:19;;;;;;;13.63;7.03;;;;;;;-9.54;100.00;99620.47;5152289;27;20056;-61
2021/12/09 06:23:45;;;;;;;14.95;6.25;;;;;;;-9.58;100.00;99612.16;5152248;27;20428;-52
2021/12/09 06:26:12;;;;;;;16.17;6.47;;;;;;;-9.59;100.00;99597.28;5152119;27;20054;-59
2021/12/09 06:28:38;;;;;;;12.60;6.55;;;;;;;-9.71;100.00;99578.63;5151711;27;20417;-53
2021/12/09 06:31:05;;;;;;;12.15;6.70;;;;;;;-9.76;100.00;99577.69;5151566;27;20047;-53
2021/12/09 06:33:32;;;;;;;14.93;7.03;;;;;;;-9.73;100.00;99562.13;5151856;27;20497;-53
2021/12/09 06:36:00;;;;;;;15.23;7.28;;;;;;;-9.59;100.00;99572.59;5151669;27;20050;-56
2021/12/09 06:38:26;;;;;;;20.10;8.57;;;;;;;-9.51;100.00;99586.34;5151641;27;20054;-57
2021/12/09 06:40:53;;;;;;;14.27;7.00;;;;;;;-9.63;100.00;99574.03;5151375;27;20129;-56
2021/12/09 06:43:19;;;;;;;13.35;6.57;;;;;;;-9.65;100.00;99570.81;5151483;27;20103;-54
2021/12/09 06:45:45;;;;;;;14.77;6.95;;;;;;;-9.82;100.00;99539.59;5151669;27;20058;-53
2021/12/09 06:48:12;;;;;;;14.32;7.18;;;;;;;-9.85;100.00;99547.97;5151304;27;20108;-57
2021/12/09 06:50:38;;;;;;;15.20;7.32;;;;;;;-9.83;100.00;99548.59;5150041;27;20055;-53
2021/12/09 06:53:05;;;;;;;16.67;7.57;;;;;;;-9.81;100.00;99554.47;5150264;27;20078;-55
2021/12/09 06:55:32;;;;;;;16.40;7.18;;;;;;;-9.95;100.00;99548.50;5150702;27;20082;-57
2021/12/09 06:57:58;;;;;;;17.52;8.30;;;;;;;-9.81;100.00;99562.41;5150862;27;20055;-56
2021/12/09 07:00:27;;;;;;;16.95;7.72;;;;;;;-9.88;100.00;99561.69;5150523;27;20133;-55
2021/12/09 07:02:54;;;;;;;25.02;7.78;;;;;;;-9.83;100.00;99561.84;5149991;27;20047;-55
2021/12/09 07:05:22;;;;;;;15.25;7.38;;;;;;;-9.78;100.00;99569.94;5150656;27;20046;-55
2021/12/09 07:07:49;;;;;;;15.30;6.78;;;;;;;-9.78;100.00;99575.25;5151045;27;20137;-55
2021/12/09 07:10:17;;;;;;;14.95;7.50;;;;;;;-9.78;100.00;99567.28;5150859;27;20050;-58
2021/12/09 07:12:44;;;;;;;14.27;7.03;;;;;;;-9.68;100.00;99573.91;5148933;27;20054;-58
2021/12/09 07:15:12;;;;;;;19.27;7.32;;;;;;;-9.62;100.00;99579.16;5151279;27;20057;-55
2021/12/09 07:17:39;;;;;;;13.98;7.80;;;;;;;-9.56;100.00;99594.19;5151550;27;20095;-57
2021/12/09 07:20:10;;;;;;;15.73;7.88;;;;;;;-9.53;100.00;99580.47;5151073;27;20429;-56
2021/12/09 07:22:36;;;;;;;12.60;7.38;;;;;;;-9.48;100.00;99571.81;5148157;27;20522;-53
2021/12/09 07:25:04;;;;;;;16.92;7.47;;;;;;;-9.57;100.00;99566.00;5138961;27;20046;-55
2021/12/09 07:27:31;;;;;;;14.45;6.80;;;;;;;-9.39;100.00;99577.63;5151382;27;20573;-56
2021/12/09 07:29:58;;;;;;;13.27;6.78;;;;;;;-9.41;100.00;99571.72;5151652;27;20092;-57
2021/12/09 07:32:24;;;;;;;17.58;7.95;;;;;;;-9.45;100.00;99565.25;5150962;27;20078;-59
2021/12/09 07:34:50;;;;;;;15.48;8.05;;;;;;;-9.53;100.00;99551.28;5147839;27;20129;-60
2021/12/09 07:37:17;;;;;;;14.02;6.70;;;;;;;-9.48;100.00;99588.56;5150792;27;20517;-61
2021/12/09 07:39:43;;;;;;;18.20;8.60;;;;;;;-9.50;100.00;99589.81;5151138;27;20527;-60
2021/12/09 07:42:11;;;;;;;21.48;9.50;;;;;;;-9.48;100.00;99603.66;5150531;27;20051;-60
2021/12/09 07:44:38;;;;;;;20.98;10.35;;;;;;;-9.63;100.00;99603.22;5150785;27;20055;-61
2021/12/09 07:47:04;;;;;;;15.80;7.55;;;;;;;-9.71;100.00;99602.50;5150791;27;20065;-60
2021/12/09 07:49:31;;;;;;;17.77;9.45;;;;;;;-9.62;100.00;99634.88;5150689;27;20424;-61
2021/12/09 07:51:57;;;;;;;20.05;9.25;;;;;;;-9.61;100.00;99641.00;5148767;27;20075;-59
2021/12/09 07:54:24;;;;;;;23.75;10.15;;;;;;;-9.50;100.00;99658.81;5149872;27;20095;-60
2021/12/09 07:56:50;;;;;;;22.33;9.05;;;;;;;-9.36;100.00;99665.63;5150687;27;20051;-59
2021/12/09 07:59:17;;;;;;;17.17;8.55;;;;;;;-9.32;100.00;99666.78;5137597;27;20051;-59
2021/12/09 08:01:45;;;;;;;24.55;9.70;;;;;;;-9.31;100.00;99670.25;5131125;27;20459;-60
2021/12/09 08:04:11;;;;;;;23.40;9.48;;;;;;;-9.27;100.00;99668.75;5143368;27;20103;-59
2021/12/09 08:06:38;;;;;;;20.33;8.75;;;;;;;-9.24;100.00;99689.56;5150717;27;20061;-61
2021/12/09 08:09:05;;;;;;;18.40;7.72;;;;;;;-9.37;100.00;99687.06;5151071;27;20097;-60
2021/12/09 08:11:33;;;;;;;27.73;9.57;;;;;;;-9.43;100.00;99698.56;5150516;27;20099;-60
2021/12/09 08:14:00;;;;;;;22.60;10.13;;;;;;;-9.36;100.00;99697.47;5150922;27;20051;-60
2021/12/09 08:16:26;;;;;;;21.70;9.90;;;;;;;-9.33;100.00;99718.28;5153858;27;20147;-60
2021/12/09 08:18:56;;;;;;;22.02;9.40;;;;;;;-9.28;100.00;99728.22;5154100;27;20046;-61
2021/12/09 08:21:24;;;;;;;22.33;10.38;;;;;;;-9.09;100.00;99740.47;5153800;27;20092;-60
2021/12/09 08:23:51;;;;;;;18.40;9.20;;;;;;;-8.95;100.00;99745.63;5154080;27;20498;-60
2021/12/09 08:26:18;;;;;;;29.05;10.57;;;;;;;-8.77;100.00;99753.56;5153959;27;20190;-60
2021/12/09 08:28:44;;;;;;;20.92;10.45;;;;;;;-8.75;100.00;99751.50;5153762;27;20067;-60
2021/12/09 08:31:10;;;;;;;22.10;10.52;;;;;;;-8.71;100.00;99752.66;5154020;27;20082;-60
2021/12/09 08:33:37;;;;;;;24.70;9.73;;;;;;;-8.70;100.00;99745.50;5153626;27;20047;-61
2021/12/09 08:36:04;;;;;;;26.08;10.75;;;;;;;-8.70;100.00;99751.63;5152849;27;20057;-61
2021/12/09 08:38:31;;;;;;;24.67;10.95;;;;;;;-8.59;100.00;99750.88;5149838;27;20107;-61
2021/12/09 08:40:58;;;;;;;27.27;10.77;;;;;;;-8.55;100.00;99759.22;5153855;27;20491;-61
2021/12/09 08:43:25;;;;;;;28.88;12.10;;;;;;;-8.43;100.00;99760.09;5153125;27;20338;-60
2021/12/09 08:45:53;;;;;;;25.45;9.63;;;;;;;-8.50;100.00;99756.69;5153590;27;20050;-61
2021/12/09 08:48:21;;;;;;;29.80;12.00;;;;;;;-8.58;100.00;99757.81;5136092;27;20047;-62
2021/12/09 08:50:48;;;;;;;26.02;11.63;;;;;;;-8.59;100.00;99766.03;5134022;27;20524;-61
2021/12/09 08:53:17;;;;;;;31.55;12.70;;;;;;;-8.59;100.00;99763.38;5131434;28;20051;-62
2021/12/09 08:55:44;;;;;;;21.23;11.13;;;;;;;-8.56;100.00;99766.38;5112455;28;20048;-62
2021/12/09 08:58:12;;;;;;;26.77;12.60;;;;;;;-8.49;100.00;99763.63;5112942;28;20054;-62
2021/12/09 09:00:39;;;;;;;30.95;11.88;;;;;;;-8.40;100.00;99767.56;5116940;28;20573;-62
2021/12/09 09:03:06;;;;;;;28.20;12.23;;;;;;;-8.36;100.00;99765.28;5132836;28;20051;-61
2021/12/09 09:05:34;;;;;;;25.58;11.23;;;;;;;-8.36;100.00;99771.41;5133035;28;20051;-61
2021/12/09 09:08:01;;;;;;;33.22;12.05;;;;;;;-8.38;100.00;99767.38;5133065;28;20131;-61
2021/12/09 09:10:30;;;;;;;24.30;11.90;;;;;;;-8.39;100.00;99766.56;5132718;28;20043;-61
2021/12/09 09:12:56;;;;;;;26.55;12.48;;;;;;;-8.44;100.00;99762.94;5133077;28;20051;-61
2021/12/09 09:15:25;;;;;;;25.00;11.38;;;;;;;-8.35;100.00;99764.22;5132782;28;20108;-61
2021/12/09 09:17:52;;;;;;;32.50;12.57;;;;;;;-8.22;100.00;99755.25;5132971;28;20141;-61
2021/12/09 09:20:21;;;;;;;30.73;13.50;;;;;;;-8.18;100.00;99775.84;5132786;28;20050;-60
2021/12/09 09:22:48;;;;;;;32.15;13.90;;;;;;;-8.07;100.00;99764.41;5132406;28;20055;-60
2021/12/09 09:25:19;;;;;;;34.92;13.07;;;;;;;-8.07;100.00;99766.25;5132011;27;20072;-60
2021/12/09 09:27:47;;;;;;;29.77;13.43;;;;;;;-8.12;100.00;99760.81;5132649;27;20051;-59
2021/12/09 09:30:17;;;;;;;29.98;13.57;;;;;;;-8.18;100.00;99756.41;5129538;28;20602;-60
2021/12/09 09:32:45;;;;;;;32.60;13.40;;;;;;;-8.07;100.00;99761.75;5126427;28;20103;-60
2021/12/09 09:35:11;;;;;;;33.42;14.60;;;;;;;-7.97;100.00;99757.72;5123042;28;20574;-60
2021/12/09 09:37:38;;;;;;;34.90;14.57;;;;;;;-8.00;100.00;99761.63;5132305;28;20047;-60
2021/12/09 09:40:08;;;;;;;33.22;13.77;;;;;;;-7.92;100.00;99768.50;5131129;28;20050;-61
2021/12/09 09:42:56;;;;;;;29.23;14.05;;;;;;;-8.00;100.00;99760.84;5131517;28;20069;-61
2021/12/09 09:45:23;;;;;;;33.65;14.68;;;;;;;-8.01;100.00;99751.25;5132078;28;20051;-60
2021/12/09 09:47:50;;;;;;;40.58;15.98;;;;;;;-7.98;100.00;99750.78;5131876;28;20050;-60
2021/12/09 09:50:16;;;;;;;37.97;14.63;;;;;;;-7.94;100.00;99751.94;5132274;28;20051;-60
2021/12/09 09:52:43;;;;;;;27.85;13.90;;;;;;;-7.93;100.00;99748.22;5132061;28;20417;-60
2021/12/09 09:55:10;;;;;;;36.20;15.25;;;;;;;-7.84;100.00;99741.53;5131928;28;20054;-60
2021/12/09 09:57:37;;;;;;;31.08;12.70;;;;;;;-7.70;100.00;99753.56;5132149;28;20492;-59
2021/12/09 10:00:06;;;;;;;33.92;13.35;;;;;;;-7.72;100.00;99753.00;5132240;28;20084;-60
2021/12/09 10:02:33;;;;;;;35.88;13.68;;;;;;;-7.66;100.00;99745.97;5131739;28;20053;-60
2021/12/09 10:05:01;;;;;;;38.13;13.85;;;;;;;-7.74;100.00;99751.63;5130732;28;20141;-60
2021/12/09 10:07:29;;;;;;;26.05;11.77;;;;;;;-7.79;100.00;99749.66;5131864;28;20138;-60
2021/12/09 10:09:56;;;;;;;28.48;11.30;;;;;;;-7.68;100.00;99753.34;5131104;28;20058;-60
2021/12/09 10:12:22;;;;;;;24.67;12.75;;;;;;;-7.61;100.00;99748.72;5131866;28;20051;-61
2021/12/09 10:14:51;;;;;;;25.02;12.52;;;;;;;-7.44;100.00;99754.97;5131799;28;20051;-60
2021/12/09 10:17:19;;;;;;;32.45;12.27;;;;;;;-7.32;100.00;99743.53;5130671;28;20070;-60
2021/12/09 10:19:54;;;;;;;31.92;13.63;;;;;;;-7.24;100.00;99746.63;5131203;28;20055;-60
2021/12/09 10:22:22;;;;;;;26.70;12.95;;;;;;;-7.10;100.00;99744.50;5131628;28;20070;-60
2021/12/09 10:24:51;;;;;;;32.78;13.05;;;;;;;-7.12;100.00;99746.63;5130827;28;20082;-60
2021/12/09 10:27:24;;;;;;;30.35;12.98;;;;;;;-7.21;100.00;99737.34;5131251;28;20085;-61
2021/12/09 10:29:51;;;;;;;34.17;14.70;;;;;;;-7.16;100.00;99732.16;5129920;28;20047;-62
2021/12/09 10:32:24;;;;;;;30.27;13.27;;;;;;;-7.13;100.00;99742.31;5110659;28;20586;-61
2021/12/09 10:34:51;;;;;;;27.95;11.95;;;;;;;-6.99;100.00;99742.88;5110766;28;20048;-60
2021/12/09 10:37:20;;;;;;;28.25;12.68;;;;;;;-6.96;100.00;99731.75;5110416;28;20472;-61
2021/12/09 10:39:49;;;;;;;23.45;11.25;;;;;;;-6.97;100.00;99751.44;5110798;28;20150;-61
2021/12/09 10:42:20;;;;;;;30.38;12.98;;;;;;;-6.81;100.00;99736.56;5110767;28;20051;-61
2021/12/09 10:44:51;;;;;;;28.13;12.65;;;;;;;-6.82;100.00;99733.09;5110614;28;20086;-60
2021/12/09 10:47:24;;;;;;;30.70;12.57;;;;;;;-6.75;100.00;99731.09;5110677;28;20079;-60
2021/12/09 10:50:06;;;;;;;26.47;12.37;;;;;;;-6.77;100.00;99735.84;5111028;28;20043;-60
2021/12/09 10:52:40;;;;;;;34.40;12.70;;;;;;;-6.79;100.00;99734.47;5110472;28;20044;-60
2021/12/09 10:55:12;;;;;;;27.73;12.07;;;;;;;-6.76;100.00;99736.69;5110704;28;20430;-60
2021/12/09 10:57:39;;;;;;;23.05;10.93;;;;;;;-6.83;100.00;99731.47;5110346;28;20104;-61
2021/12/09 11:00:20;;;;;;;33.35;13.68;;;;;;;-6.79;100.00;99731.81;5110420;28;20044;-61
2021/12/09 11:03:10;;;;;;;26.67;12.50;;;;;;;-6.70;100.00;99735.69;5110481;28;20063;-61
2021/12/09 11:05:40;;;;;;;32.55;14.50;;;;;;;-6.59;100.00;99728.72;5110222;28;20105;-60
2021/12/09 11:08:15;;;;;;;34.25;14.27;;;;;;;-6.55;100.00;99721.88;5110276;28;20514;-60
2021/12/09 11:10:47;;;;;;;33.75;14.60;;;;;;;-6.56;100.00;99725.56;5109935;28;20104;-60
2021/12/09 11:13:15;;;;;;;39.72;17.08;;;;;;;-6.57;100.00;99715.94;5110378;28;20142;-60